createdAt,value
2018-05-10T00:01:00.837Z,94893.66
2018-05-10T00:03:29.135Z,94895.47
2018-05-10T00:05:57.468Z,94888.81
2018-05-10T00:08:25.777Z,94891.80
2018-05-10T00:10:54.179Z,94892.80
2018-05-10T00:13:22.560Z,94884.62
2018-05-10T00:15:50.936Z,94884.53
2018-05-10T00:18:19.344Z,94884.34
2018-05-10T00:20:47.684Z,94883.63
2018-05-10T00:23:16.072Z,94878.86
2018-05-10T00:25:44.535Z,94879.90
2018-05-10T00:28:12.849Z,94880.77
2018-05-10T00:30:41.193Z,94886.13
2018-05-10T00:33:09.577Z,94887.78
2018-05-10T00:35:37.903Z,94885.70
2018-05-10T00:38:06.233Z,94890.62
2018-05-10T00:40:34.573Z,94894.84
2018-05-10T00:43:03.035Z,94886.20
2018-05-10T00:45:31.385Z,94887.00
2018-05-10T00:47:59.749Z,94883.55
2018-05-10T00:50:28.056Z,94884.06
2018-05-10T00:52:56.385Z,94886.65
2018-05-10T00:55:24.701Z,94881.22
2018-05-10T00:57:53.025Z,94888.27
2018-05-10T01:00:21.344Z,94888.11
2018-05-10T01:02:49.676Z,94891.64
2018-05-10T01:05:17.997Z,94891.30
2018-05-10T01:07:46.314Z,94894.98
2018-05-10T01:10:14.624Z,94894.98
2018-05-10T01:12:43.032Z,94894.30
2018-05-10T01:15:11.345Z,94901.24
2018-05-10T01:17:39.686Z,94900.41
2018-05-10T01:20:07.994Z,94899.66
2018-05-10T01:22:36.326Z,94901.58
2018-05-10T01:25:04.633Z,94897.73
2018-05-10T01:27:32.990Z,94899.16
2018-05-10T01:30:01.373Z,94902.20
2018-05-10T01:32:29.745Z,94899.30
2018-05-10T01:35:10.106Z,94897.65
2018-05-10T01:37:38.488Z,94903.02
2018-05-10T01:40:06.823Z,94905.42
2018-05-10T01:42:35.308Z,94909.63
2018-05-10T01:45:03.672Z,94902.55
2018-05-10T01:47:31.999Z,94903.38
2018-05-10T01:50:00.335Z,94895.86
2018-05-10T01:52:28.662Z,94896.34
2018-05-10T01:54:56.994Z,94899.78
2018-05-10T01:57:25.306Z,94895.77
2018-05-10T01:59:53.626Z,94897.52
2018-05-10T02:02:21.957Z,94899.39
2018-05-10T02:04:50.297Z,94899.16
2018-05-10T02:07:18.711Z,94900.13
2018-05-10T02:09:47.053Z,94897.18
2018-05-10T02:12:15.361Z,94899.20
2018-05-10T02:14:43.734Z,94894.27
2018-05-10T02:17:12.003Z,94904.00
2018-05-10T02:19:40.340Z,94899.17
2018-05-10T02:22:08.658Z,94899.33
2018-05-10T02:24:37.056Z,94901.66
2018-05-10T02:27:05.423Z,94901.52
2018-05-10T02:29:33.703Z,94903.17
2018-05-10T02:32:02.019Z,94904.60
2018-05-10T02:34:31.451Z,94904.05
2018-05-10T02:36:59.795Z,94900.08
2018-05-10T02:39:28.142Z,94905.98
2018-05-10T02:41:56.517Z,94904.33
2018-05-10T02:44:24.906Z,94909.02
2018-05-10T02:46:53.225Z,94909.80
2018-05-10T02:49:21.555Z,94907.26
2018-05-10T02:51:49.899Z,94913.52
2018-05-10T02:54:18.324Z,94914.30
2018-05-10T02:56:46.652Z,94919.27
2018-05-10T02:59:15.060Z,94916.19
2018-05-10T03:01:43.407Z,94921.33
2018-05-10T03:04:11.828Z,94924.19
2018-05-10T03:06:40.220Z,94923.72
2018-05-10T03:09:08.592Z,94929.23
2018-05-10T03:11:36.969Z,94923.13
2018-05-10T03:14:05.336Z,94923.58
2018-05-10T03:16:33.671Z,94918.49
2018-05-10T03:19:01.977Z,94915.17
2018-05-10T03:21:30.345Z,94916.73
2018-05-10T03:23:58.664Z,94920.56
2018-05-10T03:26:26.997Z,94924.57
2018-05-10T03:28:55.309Z,94930.23
2018-05-10T03:31:23.692Z,94924.85
2018-05-10T03:33:52.005Z,94925.58
2018-05-10T03:36:20.364Z,94924.09
2018-05-10T03:38:48.688Z,94926.84
2018-05-10T03:41:17.017Z,94923.22
2018-05-10T03:43:45.372Z,94928.30
2018-05-10T03:46:13.684Z,94922.10
2018-05-10T03:48:42.140Z,94925.69
2018-05-10T03:51:10.462Z,94927.56
2018-05-10T03:53:38.880Z,94931.80
2018-05-10T03:56:07.202Z,94928.47
2018-05-10T03:58:35.631Z,94927.56
2018-05-10T04:01:03.949Z,94935.14
2018-05-10T04:03:44.157Z,94933.94
2018-05-10T04:06:24.317Z,94938.23
2018-05-10T04:09:04.589Z,94937.48
2018-05-10T04:11:32.960Z,94946.47
2018-05-10T04:14:01.297Z,94938.73
2018-05-10T04:16:29.608Z,94945.23
2018-05-10T04:18:57.948Z,94944.34
2018-05-10T04:21:26.364Z,94947.83
2018-05-10T04:23:54.722Z,94949.59
2018-05-10T04:26:23.020Z,94954.19
2018-05-10T04:28:51.449Z,94947.64
2018-05-10T04:31:19.788Z,94948.07
2018-05-10T04:33:48.158Z,94953.23
2018-05-10T04:36:16.493Z,94955.27
2018-05-10T04:38:44.801Z,94958.70
2018-05-10T04:41:13.145Z,94952.42
2018-05-10T04:43:41.457Z,94963.49
2018-05-10T04:46:09.813Z,94956.25
2018-05-10T04:48:38.121Z,94960.14
2018-05-10T04:51:06.461Z,94958.76
2018-05-10T04:53:34.772Z,94959.83
2018-05-10T04:56:03.104Z,94965.38
2018-05-10T04:58:31.436Z,94970.82
2018-05-10T05:00:59.768Z,94961.98
2018-05-10T05:03:28.110Z,94966.40
2018-05-10T05:05:56.474Z,94972.83
2018-05-10T05:08:24.796Z,94969.97
2018-05-10T05:10:53.133Z,94974.27
2018-05-10T05:13:21.438Z,94969.17
2018-05-10T05:15:49.777Z,94971.95
2018-05-10T05:18:18.105Z,94976.34
2018-05-10T05:20:46.417Z,94977.70
2018-05-10T05:23:14.816Z,94974.94
2018-05-10T05:25:43.140Z,94974.69
2018-05-10T05:28:11.501Z,94968.75
2018-05-10T05:30:40.262Z,94967.92
2018-05-10T05:33:08.723Z,94963.94
2018-05-10T05:35:37.093Z,94967.38
2018-05-10T05:38:05.362Z,94967.94
2018-05-10T05:40:33.670Z,94971.58
2018-05-10T05:43:02.001Z,94979.63
2018-05-10T05:45:30.426Z,94983.95
2018-05-10T05:47:58.784Z,94985.02
2018-05-10T05:50:27.097Z,94985.98
2018-05-10T05:52:55.437Z,94983.09
2018-05-10T05:55:23.750Z,94982.03
2018-05-10T05:57:52.085Z,94990.50
2018-05-10T06:00:20.481Z,94992.47
2018-05-10T06:02:48.825Z,94999.20
2018-05-10T06:05:17.121Z,95003.57
2018-05-10T06:07:45.452Z,94999.12
2018-05-10T06:10:13.789Z,95001.47
2018-05-10T06:12:42.113Z,95005.97
2018-05-10T06:15:10.490Z,95003.50
2018-05-10T06:17:38.821Z,95006.44
2018-05-10T06:20:07.161Z,95013.38
2018-05-10T06:22:35.883Z,95010.51
2018-05-10T06:25:04.326Z,95011.75
2018-05-10T06:27:32.888Z,95009.31
2018-05-10T06:30:01.398Z,95020.29
2018-05-10T06:32:29.707Z,95016.39
2018-05-10T06:34:58.104Z,95023.33
2018-05-10T06:37:26.418Z,95033.55
2018-05-10T06:39:54.740Z,95034.91
2018-05-10T06:42:23.045Z,95035.75
2018-05-10T06:44:51.375Z,95040.84
2018-05-10T06:47:20.071Z,95043.01
2018-05-10T06:49:48.448Z,95047.16
2018-05-10T06:52:16.849Z,95053.66
2018-05-10T06:54:45.221Z,95050.72
2018-05-10T06:57:13.481Z,95051.52
2018-05-10T06:59:41.849Z,95063.25
2018-05-10T07:02:10.249Z,95062.94
2018-05-10T07:04:38.618Z,95061.80
2018-05-10T07:07:07.001Z,95068.86
2018-05-10T07:09:36.113Z,95076.91
2018-05-10T07:12:04.324Z,95063.83
2018-05-10T07:14:32.638Z,95073.19
2018-05-10T07:17:00.971Z,95076.52
2018-05-10T07:19:29.274Z,95078.31
2018-05-10T07:21:57.827Z,95075.61
2018-05-10T07:24:26.170Z,95079.32
2018-05-10T07:26:54.497Z,95085.02
2018-05-10T07:29:22.927Z,95088.93
2018-05-10T07:31:51.250Z,95089.92
2018-05-10T07:34:19.557Z,95097.18
2018-05-10T07:36:48.041Z,95098.73
2018-05-10T07:39:16.660Z,95095.03
2018-05-10T07:41:46.182Z,95087.40
2018-05-10T07:44:14.728Z,95094.86
2018-05-10T07:46:43.028Z,95094.26
2018-05-10T07:49:12.049Z,95091.86
2018-05-10T07:51:40.413Z,95104.85
2018-05-10T07:54:08.735Z,95097.77
2018-05-10T07:56:37.038Z,95101.64
2018-05-10T07:59:05.368Z,95101.14
2018-05-10T08:01:33.755Z,95108.91
2018-05-10T08:04:02.103Z,95106.44
2018-05-10T08:06:30.440Z,95118.88
2018-05-10T08:08:58.824Z,95124.80
2018-05-10T08:11:27.133Z,95118.93
2018-05-10T08:13:55.450Z,95125.90
2018-05-10T08:16:23.767Z,95129.78
2018-05-10T08:18:52.092Z,95130.92
2018-05-10T08:21:21.121Z,95130.80
2018-05-10T08:23:49.445Z,95145.03
2018-05-10T08:26:17.925Z,95139.56
2018-05-10T08:28:46.547Z,95141.89
2018-05-10T08:31:14.941Z,95150.69
2018-05-10T08:33:43.320Z,95149.66
2018-05-10T08:36:11.698Z,95150.19
2018-05-10T08:38:40.080Z,95155.74
2018-05-10T08:41:08.380Z,95173.08
2018-05-10T08:43:36.748Z,95162.26
2018-05-10T08:46:05.062Z,95175.94
2018-05-10T08:48:33.422Z,95170.42
2018-05-10T08:51:02.032Z,95170.49
2018-05-10T08:53:30.338Z,95169.91
2018-05-10T08:55:58.671Z,95166.87
2018-05-10T08:58:27.035Z,95171.50
2018-05-10T09:00:55.365Z,95162.84
2018-05-10T09:03:23.751Z,95166.39
2018-05-10T09:05:53.489Z,95171.73
2018-05-10T09:08:21.802Z,95174.41
2018-05-10T09:10:50.245Z,95187.59
2018-05-10T09:13:18.689Z,95183.74
2018-05-10T09:15:47.024Z,95181.59
2018-05-10T09:18:15.356Z,95190.98
2018-05-10T09:20:43.735Z,95190.41
2018-05-10T09:23:12.072Z,95185.73
2018-05-10T09:25:40.390Z,95194.25
2018-05-10T09:28:08.741Z,95196.61
2018-05-10T09:30:37.046Z,95189.28
2018-05-10T09:33:05.397Z,95191.13
2018-05-10T09:35:33.794Z,95185.87
2018-05-10T09:38:02.169Z,95187.70
2018-05-10T09:40:30.473Z,95180.45
2018-05-10T09:42:58.817Z,95192.08
2018-05-10T09:45:27.245Z,95184.60
2018-05-10T09:47:55.565Z,95191.44
2018-05-10T09:50:23.945Z,95190.44
2018-05-10T09:52:52.353Z,95197.75
2018-05-10T09:55:20.693Z,95194.70
2018-05-10T09:57:49.045Z,95182.02
2018-05-10T10:00:23.106Z,95184.91
2018-05-10T10:02:51.521Z,95195.00
2018-05-10T10:05:19.853Z,95200.84
2018-05-10T10:07:48.191Z,95204.63
2018-05-10T10:10:16.513Z,95204.23
2018-05-10T10:12:44.905Z,95205.81
2018-05-10T10:15:13.225Z,95206.14
2018-05-10T10:17:41.589Z,95210.34
2018-05-10T10:20:09.938Z,95211.47
2018-05-10T10:22:38.430Z,95211.28
2018-05-10T10:25:06.756Z,95222.52
2018-05-10T10:27:35.202Z,95219.50
2018-05-10T10:30:03.553Z,95221.66
2018-05-10T10:32:31.870Z,95228.47
2018-05-10T10:35:00.203Z,95223.58
2018-05-10T10:37:28.557Z,95220.89
2018-05-10T10:39:56.905Z,95226.16
2018-05-10T10:42:25.226Z,95223.75
2018-05-10T10:44:53.605Z,95221.97
2018-05-10T10:47:21.921Z,95220.90
2018-05-10T10:49:50.267Z,95219.17
2018-05-10T10:52:18.576Z,95216.63
2018-05-10T10:54:46.912Z,95221.13
2018-05-10T10:57:15.226Z,95217.89
2018-05-10T10:59:43.567Z,95218.86
2018-05-10T11:02:11.889Z,95223.03
2018-05-10T11:04:40.226Z,95221.77
2018-05-10T11:07:08.561Z,95215.77
2018-05-10T11:09:36.885Z,95225.62
2018-05-10T11:12:05.279Z,95231.93
2018-05-10T11:14:33.589Z,95231.36
2018-05-10T11:17:02.018Z,95230.64
2018-05-10T11:19:30.389Z,95228.81
2018-05-10T11:21:58.736Z,95233.11
2018-05-10T11:24:27.059Z,95237.58
2018-05-10T11:26:55.395Z,95234.89
2018-05-10T11:29:23.707Z,95242.50
2018-05-10T11:31:52.045Z,95244.70
2018-05-10T11:34:20.341Z,95245.95
2018-05-10T11:36:48.689Z,95244.52
2018-05-10T11:39:17.029Z,95247.24
2018-05-10T11:41:45.581Z,95240.17
2018-05-10T11:44:13.974Z,95246.34
2018-05-10T11:46:42.361Z,95254.29
2018-05-10T11:49:10.700Z,95244.95
2018-05-10T11:51:39.117Z,95248.70
2018-05-10T11:54:07.436Z,95239.23
2018-05-10T11:56:35.881Z,95240.25
2018-05-10T11:59:04.205Z,95244.30
2018-05-10T12:01:32.514Z,95247.16
2018-05-10T12:04:01.025Z,95243.91
2018-05-10T12:06:29.337Z,95246.83
2018-05-10T12:08:57.677Z,95255.58
2018-05-10T12:11:25.992Z,95266.28
2018-05-10T12:13:54.417Z,95265.94
2018-05-10T12:16:22.745Z,95269.98
2018-05-10T12:18:51.161Z,95271.98
2018-05-10T12:21:19.565Z,95268.83
2018-05-10T12:23:47.880Z,95272.45
2018-05-10T12:26:16.201Z,95278.31
2018-05-10T12:28:44.538Z,95273.34
2018-05-10T12:31:12.854Z,95276.34
2018-05-10T12:33:41.184Z,95280.55
2018-05-10T12:36:09.504Z,95267.22
2018-05-10T12:38:37.892Z,95273.59
2018-05-10T12:41:06.269Z,95266.83
2018-05-10T12:43:34.653Z,95284.65
2018-05-10T12:46:02.978Z,95280.27
2018-05-10T12:48:31.323Z,95276.39
2018-05-10T12:50:59.735Z,95276.99
2018-05-10T12:53:28.052Z,95275.37
2018-05-10T12:55:56.430Z,95278.35
2018-05-10T12:58:24.753Z,95288.03
2018-05-10T13:00:53.112Z,95282.92
2018-05-10T13:03:21.468Z,95296.39
2018-05-10T13:05:49.851Z,95304.24
2018-05-10T13:08:18.167Z,95305.31
2018-05-10T13:10:46.508Z,95308.81
2018-05-10T13:13:14.963Z,95303.79
2018-05-10T13:15:43.245Z,95304.61
2018-05-10T13:18:11.649Z,95301.33
2018-05-10T13:20:39.985Z,95310.48
2018-05-10T13:23:08.293Z,95310.77
2018-05-10T13:25:36.637Z,95299.44
2018-05-10T13:28:05.017Z,95309.48
2018-05-10T13:30:33.438Z,95308.08
2018-05-10T13:33:01.803Z,95310.07
2018-05-10T13:35:30.125Z,95322.84
2018-05-10T13:37:58.702Z,95310.58
2018-05-10T13:40:27.042Z,95326.12
2018-05-10T13:42:55.361Z,95315.53
2018-05-10T13:45:23.716Z,95325.55
2018-05-10T13:47:52.030Z,95321.05
2018-05-10T13:50:20.328Z,95322.46
2018-05-10T13:52:48.684Z,95324.44
2018-05-10T13:55:17.016Z,95325.07
2018-05-10T13:57:45.352Z,95332.12
2018-05-10T14:00:13.782Z,95336.94
2018-05-10T14:02:42.118Z,95343.53
2018-05-10T14:05:10.481Z,95331.30
2018-05-10T14:07:38.867Z,95342.88
2018-05-10T14:10:07.265Z,95352.59
2018-05-10T14:12:35.659Z,95358.86
2018-05-10T14:15:04.029Z,95367.42
2018-05-10T14:17:32.375Z,95364.70
2018-05-10T14:20:00.774Z,95359.75
2018-05-10T14:22:29.156Z,95360.81
2018-05-10T14:24:57.464Z,95358.74
2018-05-10T14:27:25.795Z,95360.78
2018-05-10T14:29:54.134Z,95380.52
2018-05-10T14:32:22.632Z,95377.52
2018-05-10T14:34:50.844Z,95378.20
2018-05-10T14:37:19.233Z,95377.21
2018-05-10T14:39:47.549Z,95384.61
2018-05-10T14:42:15.897Z,95378.05
2018-05-10T14:44:44.225Z,95376.55
2018-05-10T14:47:12.629Z,95382.33
2018-05-10T14:49:40.970Z,95384.41
2018-05-10T14:52:09.285Z,95382.85
2018-05-10T14:54:37.616Z,95406.81
2018-05-10T14:57:05.944Z,95417.23
2018-05-10T14:59:34.276Z,95409.30
2018-05-10T15:02:02.604Z,95416.05
2018-05-10T15:04:30.950Z,95417.22
2018-05-10T15:06:59.574Z,95415.39
2018-05-10T15:09:27.905Z,95412.81
2018-05-10T15:11:56.213Z,95412.81
2018-05-10T15:14:24.560Z,95413.31
2018-05-10T15:16:52.967Z,95433.73
2018-05-10T15:19:21.333Z,95431.75
2018-05-10T15:21:49.729Z,95440.50
2018-05-10T15:24:18.101Z,95429.48
2018-05-10T15:26:46.487Z,95426.23
2018-05-10T15:29:14.859Z,95429.57
2018-05-10T15:31:43.311Z,95436.41
2018-05-10T15:34:11.569Z,95431.52
2018-05-10T15:36:39.907Z,95436.08
2018-05-10T15:39:08.231Z,95449.36
2018-05-10T15:41:36.650Z,95455.08
2018-05-10T15:44:04.959Z,95454.66
2018-05-10T15:46:33.313Z,95458.02
2018-05-10T15:49:01.688Z,95458.74
2018-05-10T15:51:30.078Z,95455.27
2018-05-10T15:53:58.378Z,95468.01
2018-05-10T15:56:26.715Z,95466.72
2018-05-10T15:58:55.097Z,95460.68
2018-05-10T16:01:23.426Z,95471.31
2018-05-10T16:03:51.742Z,95469.58
2018-05-10T16:06:20.129Z,95481.48
2018-05-10T16:08:48.505Z,95478.70
2018-05-10T16:11:16.884Z,95467.95
2018-05-10T16:13:45.272Z,95482.08
2018-05-10T16:16:13.570Z,95479.78
2018-05-10T16:18:41.919Z,95473.70
2018-05-10T16:21:10.339Z,95466.97
2018-05-10T16:23:38.777Z,95473.80
2018-05-10T16:26:07.084Z,95482.88
2018-05-10T16:28:35.420Z,95480.47
2018-05-10T16:31:03.836Z,95480.57
2018-05-10T16:33:32.205Z,95490.30
2018-05-10T16:36:00.494Z,95485.80
2018-05-10T16:38:28.822Z,95500.09
2018-05-10T16:40:57.141Z,95514.52
2018-05-10T16:43:25.485Z,95536.83
2018-05-10T16:45:53.815Z,95517.50
2018-05-10T16:48:22.193Z,95523.99
2018-05-10T16:50:50.492Z,95532.22
2018-05-10T16:53:18.907Z,95535.91
2018-05-10T16:55:47.292Z,95543.23
2018-05-10T16:58:15.710Z,95540.44
2018-05-10T17:00:44.067Z,95544.91
2018-05-10T17:03:12.404Z,95554.57
2018-05-10T17:05:40.720Z,95557.50
2018-05-10T17:08:09.038Z,95566.42
2018-05-10T17:10:37.366Z,95572.91
2018-05-10T17:13:05.778Z,95570.38
2018-05-10T17:15:34.117Z,95569.52
2018-05-10T17:18:02.421Z,95588.27
2018-05-10T17:20:30.765Z,95583.70
2018-05-10T17:22:59.109Z,95598.15
2018-05-10T17:25:27.547Z,95598.42
2018-05-10T17:27:55.863Z,95611.88
2018-05-10T17:30:24.288Z,95613.33
2018-05-10T17:32:52.588Z,95625.16
2018-05-10T17:35:21.038Z,95614.39
2018-05-10T17:37:49.412Z,95628.81
2018-05-10T17:40:17.829Z,95634.53
2018-05-10T17:42:46.146Z,95635.00
2018-05-10T17:45:14.480Z,95638.14
2018-05-10T17:47:42.790Z,95647.34
2018-05-10T17:50:11.138Z,95653.58
2018-05-10T17:52:39.493Z,95658.48
2018-05-10T17:55:07.923Z,95676.05
2018-05-10T17:57:37.131Z,95668.44
2018-05-10T18:00:05.539Z,95674.52
2018-05-10T18:02:33.917Z,95680.56
2018-05-10T18:05:02.259Z,95694.91
2018-05-10T18:07:30.565Z,95687.72
2018-05-10T18:09:59.762Z,95687.85
2018-05-10T18:12:28.071Z,95693.06
2018-05-10T18:14:56.400Z,95697.30
2018-05-10T18:17:24.712Z,95701.55
2018-05-10T18:19:53.110Z,95708.38
2018-05-10T18:22:21.416Z,95714.20
2018-05-10T18:24:49.821Z,95715.97
2018-05-10T18:27:18.213Z,95723.83
2018-05-10T18:29:46.589Z,95722.19
2018-05-10T18:32:14.899Z,95733.42
2018-05-10T18:34:43.246Z,95733.02
2018-05-10T18:37:11.621Z,95743.58
2018-05-10T18:39:39.996Z,95743.59
2018-05-10T18:42:08.313Z,95746.67
2018-05-10T18:44:36.756Z,95756.91
2018-05-10T18:47:05.066Z,95763.87
2018-05-10T18:49:33.448Z,95766.12
2018-05-10T18:52:01.789Z,95770.67
2018-05-10T18:54:30.128Z,95771.45
2018-05-10T18:56:58.543Z,95785.36
2018-05-10T18:59:27.012Z,95795.22
2018-05-10T19:01:55.322Z,95804.10
2018-05-10T19:04:23.608Z,95812.12
2018-05-10T19:06:51.942Z,95815.50
2018-05-10T19:09:20.322Z,95826.19
2018-05-10T19:11:48.658Z,95836.52
2018-05-10T19:14:16.972Z,95840.40
2018-05-10T19:16:45.318Z,95841.00
2018-05-10T19:19:13.629Z,95843.48
2018-05-10T19:21:42.030Z,95847.83
2018-05-10T19:24:10.371Z,95854.12
2018-05-10T19:26:39.032Z,95873.75
2018-05-10T19:29:07.353Z,95886.27
2018-05-10T19:31:35.693Z,95889.73
2018-05-10T19:34:04.042Z,95897.20
2018-05-10T19:36:32.373Z,95905.28
2018-05-10T19:39:00.687Z,95918.41
2018-05-10T19:41:29.021Z,95919.64
2018-05-10T19:43:58.184Z,95934.84
2018-05-10T19:46:26.519Z,95932.73
2018-05-10T19:48:54.900Z,95948.86
2018-05-10T19:51:23.327Z,95961.91
2018-05-10T19:53:51.548Z,95957.88
2018-05-10T19:56:19.924Z,95966.64
2018-05-10T19:58:48.240Z,95973.56
2018-05-10T20:01:16.582Z,95983.09
2018-05-10T20:03:44.930Z,95990.80
2018-05-10T20:06:13.333Z,96010.41
2018-05-10T20:08:41.695Z,96006.13
2018-05-10T20:11:09.989Z,96007.70
2018-05-10T20:13:38.400Z,96016.52
2018-05-10T20:16:06.635Z,96022.44
2018-05-10T20:18:35.025Z,96029.55
2018-05-10T20:21:03.437Z,96039.59
2018-05-10T20:23:31.764Z,96037.89
2018-05-10T20:26:00.137Z,96040.16
2018-05-10T20:28:28.513Z,96050.00
2018-05-10T20:30:56.763Z,96046.95
2018-05-10T20:33:25.192Z,96058.33
2018-05-10T20:35:53.503Z,96055.99
2018-05-10T20:38:21.848Z,96062.30
2018-05-10T20:40:50.156Z,96058.06
2018-05-10T20:43:18.672Z,96063.03
2018-05-10T20:45:46.985Z,96072.75
2018-05-10T20:48:15.384Z,96076.48
2018-05-10T20:50:43.719Z,96074.20
2018-05-10T20:53:12.053Z,96084.41
2018-05-10T20:55:40.401Z,96084.30
2018-05-10T20:58:08.713Z,96084.77
2018-05-10T21:00:37.055Z,96087.49
2018-05-10T21:03:05.427Z,96085.23
2018-05-10T21:05:33.814Z,96087.72
2018-05-10T21:08:02.187Z,96087.58
2018-05-10T21:10:30.529Z,96094.09
2018-05-10T21:12:58.858Z,96093.89
2018-05-10T21:15:27.236Z,96096.67
2018-05-10T21:17:55.547Z,96100.77
2018-05-10T21:20:23.968Z,96109.13
2018-05-10T21:22:52.274Z,96113.57
2018-05-10T21:25:20.613Z,96105.27
2018-05-10T21:27:49.026Z,96110.55
2018-05-10T21:30:17.985Z,96119.20
2018-05-10T21:32:46.390Z,96115.84
2018-05-10T21:35:14.732Z,96121.33
2018-05-10T21:37:43.081Z,96124.03
2018-05-10T21:40:11.385Z,96128.71
2018-05-10T21:42:39.729Z,96130.13
2018-05-10T21:45:08.029Z,96132.09
2018-05-10T21:47:36.449Z,96142.27
2018-05-10T21:50:05.628Z,96130.47
2018-05-10T21:52:33.968Z,96140.41
2018-05-10T21:55:02.467Z,96134.22
2018-05-10T21:57:30.778Z,96136.78
2018-05-10T21:59:59.141Z,96137.27
2018-05-10T22:02:27.476Z,96146.06
2018-05-10T22:04:55.785Z,96142.67
2018-05-10T22:07:24.203Z,96136.95
2018-05-10T22:09:52.508Z,96147.77
2018-05-10T22:12:20.900Z,96157.31
2018-05-10T22:14:49.365Z,96145.41
2018-05-10T22:17:17.716Z,96153.04
2018-05-10T22:19:46.091Z,96149.64
2018-05-10T22:22:14.429Z,96150.19
2018-05-10T22:24:42.833Z,96152.80
2018-05-10T22:27:11.175Z,96154.34
2018-05-10T22:29:39.586Z,96157.28
2018-05-10T22:32:07.978Z,96153.83
2018-05-10T22:34:36.302Z,96148.36
2018-05-10T22:37:04.616Z,96155.96
2018-05-10T22:39:32.958Z,96160.32
2018-05-10T22:42:01.281Z,96163.62
2018-05-10T22:44:29.680Z,96167.63
2018-05-10T22:46:57.937Z,96162.19
2018-05-10T22:49:26.311Z,96155.52
2018-05-10T22:51:54.614Z,96164.53
2018-05-10T22:54:22.961Z,96161.88
2018-05-10T22:56:51.269Z,96157.72
2018-05-10T22:59:19.720Z,96158.57
2018-05-10T23:01:48.035Z,96159.53
2018-05-10T23:04:16.373Z,96159.75
2018-05-10T23:06:44.740Z,96165.45
2018-05-10T23:09:13.096Z,96165.69
2018-05-10T23:11:41.524Z,96164.18
2018-05-10T23:14:09.873Z,96171.53
2018-05-10T23:16:38.276Z,96178.80
2018-05-10T23:19:06.653Z,96162.19
2018-05-10T23:21:34.973Z,96163.88
2018-05-10T23:24:03.278Z,96170.66
2018-05-10T23:26:31.609Z,96169.30
2018-05-10T23:28:59.921Z,96179.19
2018-05-10T23:31:28.257Z,96170.34
2018-05-10T23:33:56.566Z,96174.66
2018-05-10T23:36:24.893Z,96176.49
2018-05-10T23:38:53.265Z,96167.61
2018-05-10T23:41:21.599Z,96162.84
2018-05-10T23:43:49.913Z,96167.63
2018-05-10T23:46:18.238Z,96175.74
2018-05-10T23:48:46.545Z,96178.16
2018-05-10T23:51:14.956Z,96181.44
2018-05-10T23:53:43.264Z,96177.19
2018-05-10T23:56:11.696Z,96174.72
2018-05-10T23:58:40.014Z,96169.08
